Collins, Iowa
Current Conditions -  °F | °C
As of 11:20 AM on Saturday 22 Nov 2014 (Local Time) from KAMW Reporting Station
Broken Clouds Broken Clouds  
Wind Chill: 39°   Ceiling: 1000
Heat Index: 46°   Visibility: 7mi
Dew Point: 41°   Wind: 18mph
Humidity: 83%   Direction: 200°SSW
Pressure: 29.82"   Gusts: NA
Location:  41.9°N, 93.31°W
Report Text: KAMW 221720Z AUTO 20016KT 7SM BKN010 08/05 A2982 RMK AO2 CIG 008V013 T00780050 $
Loading
Personal Weather Stations






























Interactive Weather Map New forecast layout! Learn more

10-Day Weather Forecast

Advertisements
Track Severe Weather on mobile